Time;durP1;ratioP1;P1;durP2;ratioP2;P2;SDS_P1;SDS_P2;PMS_P1;PMS_P2;Temp;Humidity;BMP_temperature;BMP_pressure;BME280_temperature;BME280_humidity;BME280_pressure;Samples;Min_cycle;Max_cycle;Signal;HPM_P1;HPM_P2
2021/01/06 00:00:18;;;;;;;;;;;1.30;99.90;;;;;;5051047;28;19932;-76
2021/01/06 00:02:43;;;;;;;;;;;1.30;99.90;;;;;;5052187;28;19916;-76
2021/01/06 00:05:10;;;;;;;;;;;1.30;99.90;;;;;;5052357;28;19909;-76
2021/01/06 00:07:39;;;;;;;;;;;1.30;99.90;;;;;;5051765;28;19912;-76
2021/01/06 00:10:05;;;;;;;;;;;1.30;99.90;;;;;;5050843;28;19916;-76
2021/01/06 00:12:30;;;;;;;;;;;1.30;99.90;;;;;;5052245;28;19916;-76
2021/01/06 00:14:56;;;;;;;;;;;1.40;99.90;;;;;;5059623;28;20473;-76
2021/01/06 00:17:21;;;;;;;;;;;1.30;99.90;;;;;;5068939;28;19912;-76
2021/01/06 00:19:47;;;;;;;;;;;1.30;99.90;;;;;;5071837;28;19912;-76
2021/01/06 00:22:12;;;;;;;;;;;1.30;99.90;;;;;;5072191;28;20407;-76
2021/01/06 00:24:38;;;;;;;;;;;1.20;99.90;;;;;;5071959;28;19915;-76
2021/01/06 00:27:05;;;;;;;;;;;1.20;99.90;;;;;;5071476;28;19944;-76
2021/01/06 00:29:30;;;;;;;;;;;1.20;99.90;;;;;;5071864;28;19962;-76
2021/01/06 00:31:55;;;;;;;;;;;1.20;99.90;;;;;;5071914;28;19912;-76
2021/01/06 00:34:21;;;;;;;;;;;1.20;99.90;;;;;;5060006;28;19919;-75
2021/01/06 00:36:47;;;;;;;;;;;1.10;99.90;;;;;;5059889;28;19909;-75
2021/01/06 00:39:12;;;;;;;;;;;1.10;99.90;;;;;;5058612;28;19943;-76
2021/01/06 00:41:38;;;;;;;;;;;1.10;99.90;;;;;;5061394;28;19912;-76
2021/01/06 00:44:04;;;;;;;;;;;1.10;99.90;;;;;;5053119;28;19909;-76
2021/01/06 00:46:30;;;;;;;;;;;1.10;99.90;;;;;;5047473;28;19916;-76
2021/01/06 00:48:56;;;;;;;;;;;1.00;99.90;;;;;;5049028;28;20456;-76
2021/01/06 00:51:22;;;;;;;;;;;1.00;99.90;;;;;;5049121;28;19909;-76
2021/01/06 00:53:47;;;;;;;;;;;1.00;99.90;;;;;;5048974;28;19909;-76
2021/01/06 00:56:13;;;;;;;;;;;1.00;99.90;;;;;;5048821;28;20320;-76
2021/01/06 00:58:38;;;;;;;;;;;1.00;99.90;;;;;;5048033;28;19917;-76
2021/01/06 01:01:04;;;;;;;;;;;1.00;99.90;;;;;;5050734;28;19909;-76
2021/01/06 01:03:29;;;;;;;;;;;1.00;99.90;;;;;;5050661;28;20353;-76
2021/01/06 01:05:55;;;;;;;;;;;1.00;99.90;;;;;;5051439;28;19923;-76
2021/01/06 01:08:20;;;;;;;;;;;1.10;99.90;;;;;;5051682;28;19995;-76
2021/01/06 01:10:47;;;;;;;;;;;1.00;99.90;;;;;;5051633;28;19952;-76
2021/01/06 01:13:17;;;;;;;;;;;0.90;99.90;;;;;;5051776;28;19909;-75
2021/01/06 01:15:45;;;;;;;;;;;0.90;99.90;;;;;;5051408;28;19913;-76
2021/01/06 01:18:12;;;;;;;;;;;0.90;99.90;;;;;;5051579;28;19916;-76
2021/01/06 01:20:48;;;;;;;;;;;0.90;99.90;;;;;;5051658;28;19948;-75
2021/01/06 01:23:16;;;;;;;;;;;0.90;99.90;;;;;;5051558;28;19908;-76
2021/01/06 01:25:42;;;;;;;;;;;1.00;99.90;;;;;;5051296;28;19913;-76
2021/01/06 01:28:07;;;;;;;;;;;1.00;99.90;;;;;;5051542;28;19909;-75
2021/01/06 01:30:33;;;;;;;;;;;0.90;99.90;;;;;;5051482;28;19917;-76
2021/01/06 01:32:58;;;;;;;;;;;0.80;99.90;;;;;;5051491;28;19913;-76
2021/01/06 01:35:35;;;;;;;;;;;0.80;99.90;;;;;;5051538;28;20237;-76
2021/01/06 01:38:01;;;;;;;;;;;0.70;99.90;;;;;;5051189;28;19909;-76
2021/01/06 01:40:29;;;;;;;;;;;0.70;99.90;;;;;;5051580;28;19913;-76
2021/01/06 01:43:02;;;;;;;;;;;0.60;99.90;;;;;;5051526;28;19935;-76
2021/01/06 01:45:32;;;;;;;;;;;0.70;99.90;;;;;;5051408;28;19916;-76
2021/01/06 01:48:01;;;;;;;;;;;0.70;99.90;;;;;;5049873;28;20281;-76
2021/01/06 01:50:27;;;;;;;;;;;0.70;99.90;;;;;;5053160;28;19913;-76
2021/01/06 01:53:05;;;;;;;;;;;0.70;99.90;;;;;;5053941;28;19909;-76
2021/01/06 01:55:32;;;;;;;;;;;0.70;99.90;;;;;;5055165;28;19909;-76
2021/01/06 01:58:01;;;;;;;;;;;0.60;99.90;;;;;;5054644;28;19909;-76
2021/01/06 02:00:29;;;;;;;;;;;0.60;99.90;;;;;;5053783;28;19916;-76
2021/01/06 02:02:54;;;;;;;;;;;0.60;99.90;;;;;;5053614;28;19917;-76
2021/01/06 02:05:22;;;;;;;;;;;0.60;99.90;;;;;;5053726;28;19909;-76
2021/01/06 02:08:08;;;;;;;;;;;0.60;99.90;;;;;;5054555;28;19938;-76
2021/01/06 02:10:38;;;;;;;;;;;0.60;99.90;;;;;;5054950;28;20295;-76
2021/01/06 02:13:03;;;;;;;;;;;0.60;99.90;;;;;;5054813;28;19916;-76
2021/01/06 02:15:33;;;;;;;;;;;0.60;99.90;;;;;;5054687;28;19913;-76
2021/01/06 02:17:58;;;;;;;;;;;0.70;99.90;;;;;;5054456;28;19908;-76
2021/01/06 02:20:26;;;;;;;;;;;0.70;99.90;;;;;;5054694;28;19916;-76
2021/01/06 02:22:51;;;;;;;;;;;0.80;99.90;;;;;;5054585;28;20054;-76
2021/01/06 02:25:18;;;;;;;;;;;0.80;99.90;;;;;;5054568;28;19984;-76
2021/01/06 02:27:43;;;;;;;;;;;0.80;99.90;;;;;;5053947;28;19908;-76
2021/01/06 02:30:11;;;;;;;;;;;0.90;99.90;;;;;;5054295;28;19916;-77
2021/01/06 02:32:36;;;;;;;;;;;0.90;99.90;;;;;;5053132;28;20250;-76
2021/01/06 02:35:04;;;;;;;;;;;0.90;99.90;;;;;;5054321;28;19917;-76
2021/01/06 02:37:29;;;;;;;;;;;0.90;99.90;;;;;;5053983;28;20007;-76
2021/01/06 02:39:55;;;;;;;;;;;0.90;99.90;;;;;;5054671;28;20003;-76
2021/01/06 02:42:20;;;;;;;;;;;0.90;99.90;;;;;;5052958;28;19916;-76
2021/01/06 02:44:46;;;;;;;;;;;0.90;99.90;;;;;;5054109;28;19909;-76
2021/01/06 02:47:12;;;;;;;;;;;0.90;99.90;;;;;;5053795;28;19913;-76
2021/01/06 02:49:38;;;;;;;;;;;0.90;99.90;;;;;;5054006;28;20320;-76
2021/01/06 02:52:13;;;;;;;;;;;0.80;99.90;;;;;;5054012;28;19909;-76
2021/01/06 02:54:40;;;;;;;;;;;0.80;99.90;;;;;;5053986;28;19932;-76
2021/01/06 02:57:06;;;;;;;;;;;0.80;99.90;;;;;;5053545;28;19909;-76
2021/01/06 02:59:36;;;;;;;;;;;0.80;99.90;;;;;;5053678;28;19917;-76
2021/01/06 03:02:02;;;;;;;;;;;0.70;99.90;;;;;;5052867;28;19909;-76
2021/01/06 03:04:29;;;;;;;;;;;0.70;99.90;;;;;;5054015;28;19909;-76
2021/01/06 03:06:56;;;;;;;;;;;0.60;99.90;;;;;;5053902;28;19909;-76
2021/01/06 03:09:22;;;;;;;;;;;0.60;99.90;;;;;;5053576;28;19940;-76
2021/01/06 03:11:47;;;;;;;;;;;0.60;99.90;;;;;;5053655;28;19956;-76
2021/01/06 03:14:13;;;;;;;;;;;0.60;99.90;;;;;;5052336;28;19916;-76
2021/01/06 03:16:39;;;;;;;;;;;0.60;99.90;;;;;;5053357;28;19908;-76
2021/01/06 03:19:05;;;;;;;;;;;0.60;99.90;;;;;;5052166;28;20638;-76
2021/01/06 03:21:30;;;;;;;;;;;0.60;99.90;;;;;;5053532;28;19998;-76
2021/01/06 03:23:56;;;;;;;;;;;0.60;99.90;;;;;;5053333;28;19909;-76
2021/01/06 03:26:23;;;;;;;;;;;0.50;99.90;;;;;;5053114;28;19982;-76
2021/01/06 03:28:50;;;;;;;;;;;0.50;99.90;;;;;;5053206;28;19908;-76
2021/01/06 03:31:19;;;;;;;;;;;0.50;99.90;;;;;;5053207;28;19925;-76
2021/01/06 03:33:58;;;;;;;;;;;0.50;99.90;;;;;;5053321;28;20107;-76
2021/01/06 03:36:25;;;;;;;;;;;0.50;99.90;;;;;;5052782;28;19908;-76
2021/01/06 03:38:56;;;;;;;;;;;0.50;99.90;;;;;;5051784;28;20276;-76
2021/01/06 03:41:22;;;;;;;;;;;0.50;99.90;;;;;;5051781;28;19908;-76
2021/01/06 03:43:51;;;;;;;;;;;0.50;99.90;;;;;;5053006;28;19913;-76
2021/01/06 03:46:23;;;;;;;;;;;0.50;99.90;;;;;;5052771;28;20340;-76
2021/01/06 03:48:49;;;;;;;;;;;0.40;99.90;;;;;;5051614;28;19971;-76
2021/01/06 03:51:28;;;;;;;;;;;0.30;99.90;;;;;;5051770;28;19956;-76
2021/01/06 03:53:56;;;;;;;;;;;0.30;99.90;;;;;;5052877;28;19908;-76
2021/01/06 03:56:29;;;;;;;;;;;0.30;99.90;;;;;;5051287;28;19909;-76
2021/01/06 03:59:13;;;;;;;;;;;0.30;99.90;;;;;;5052668;28;19920;-76
2021/01/06 04:01:39;;;;;;;;;;;0.30;99.90;;;;;;5051358;28;19913;-76
2021/01/06 04:04:29;;;;;;;;;;;0.30;99.90;;;;;;5052705;28;19939;-76
2021/01/06 04:06:55;;;;;;;;;;;0.30;99.90;;;;;;5050980;28;19955;-76
2021/01/06 04:09:25;;;;;;;;;;;0.30;99.90;;;;;;5052543;28;19916;-76
2021/01/06 04:11:59;;;;;;;;;;;0.40;99.90;;;;;;5051165;28;19938;-76
2021/01/06 04:14:25;;;;;;;;;;;0.40;99.90;;;;;;5052258;28;19978;-76
2021/01/06 04:16:50;;;;;;;;;;;0.40;99.90;;;;;;5052154;28;19913;-76
2021/01/06 04:19:15;;;;;;;;;;;0.40;99.90;;;;;;5050931;28;19920;-76
2021/01/06 04:21:41;;;;;;;;;;;0.40;99.90;;;;;;5052402;28;20448;-76
2021/01/06 04:24:08;;;;;;;;;;;0.40;99.90;;;;;;5052298;28;19963;-76
2021/01/06 04:26:33;;;;;;;;;;;0.40;99.90;;;;;;5051849;28;19915;-76
2021/01/06 04:28:59;;;;;;;;;;;0.40;99.90;;;;;;5050814;28;19909;-76
2021/01/06 04:31:24;;;;;;;;;;;0.40;99.90;;;;;;5052177;28;19917;-76
2021/01/06 04:33:53;;;;;;;;;;;0.40;99.90;;;;;;5052181;28;19950;-76
2021/01/06 04:36:30;;;;;;;;;;;0.40;99.90;;;;;;5050432;28;19931;-76
2021/01/06 04:38:56;;;;;;;;;;;0.40;99.90;;;;;;5051816;28;20289;-76
2021/01/06 04:41:27;;;;;;;;;;;0.50;99.90;;;;;;5052072;28;19913;-76
2021/01/06 04:43:58;;;;;;;;;;;0.50;99.90;;;;;;5052098;28;20385;-76
2021/01/06 04:46:33;;;;;;;;;;;0.50;99.90;;;;;;5051736;28;19971;-76
2021/01/06 04:49:16;;;;;;;;;;;0.50;99.90;;;;;;5051879;28;19924;-76
2021/01/06 04:51:47;;;;;;;;;;;0.50;99.90;;;;;;5051939;28;19913;-76
2021/01/06 04:54:20;;;;;;;;;;;0.50;99.90;;;;;;5051773;28;19963;-76
2021/01/06 04:56:48;;;;;;;;;;;0.50;99.90;;;;;;5051317;28;20339;-76
2021/01/06 04:59:32;;;;;;;;;;;0.50;99.90;;;;;;5051689;28;19939;-76
2021/01/06 05:02:15;;;;;;;;;;;0.50;99.90;;;;;;5051628;28;19909;-76
2021/01/06 05:05:01;;;;;;;;;;;0.40;99.90;;;;;;5051848;28;20003;-76
2021/01/06 05:07:32;;;;;;;;;;;0.40;99.90;;;;;;5051142;28;19908;-76
2021/01/06 05:10:04;;;;;;;;;;;0.40;99.90;;;;;;5051769;28;20412;-76
2021/01/06 05:12:33;;;;;;;;;;;0.40;99.90;;;;;;5050299;28;19924;-76
2021/01/06 05:15:19;;;;;;;;;;;0.40;99.90;;;;;;5051747;28;19909;-76
2021/01/06 05:17:44;;;;;;;;;;;0.50;99.90;;;;;;5049688;28;19908;-76
2021/01/06 05:20:09;;;;;;;;;;;0.50;99.90;;;;;;5050298;28;19920;-76
2021/01/06 05:22:36;;;;;;;;;;;0.50;99.90;;;;;;5050244;28;19934;-76
2021/01/06 05:25:02;;;;;;;;;;;0.60;99.90;;;;;;5052637;28;19966;-75
2021/01/06 05:27:30;;;;;;;;;;;0.50;99.90;;;;;;5055268;28;19909;-76
2021/01/06 05:29:57;;;;;;;;;;;0.50;99.90;;;;;;5055470;28;20388;-76
2021/01/06 05:32:33;;;;;;;;;;;0.50;99.90;;;;;;5055600;28;20326;-76
2021/01/06 05:35:00;;;;;;;;;;;0.50;99.90;;;;;;5054540;28;20282;-76
2021/01/06 05:37:26;;;;;;;;;;;0.50;99.90;;;;;;5053675;28;20015;-76
2021/01/06 05:39:53;;;;;;;;;;;0.60;99.90;;;;;;5055227;28;20011;-76
2021/01/06 05:42:23;;;;;;;;;;;0.60;99.90;;;;;;5055229;28;19916;-76
2021/01/06 05:44:50;;;;;;;;;;;0.60;99.90;;;;;;5055364;28;19909;-76
2021/01/06 05:47:17;;;;;;;;;;;0.60;99.90;;;;;;5054909;28;19913;-76
2021/01/06 05:49:43;;;;;;;;;;;0.70;99.90;;;;;;5053864;28;19916;-76
2021/01/06 05:52:10;;;;;;;;;;;0.70;99.90;;;;;;5055201;28;20304;-76
2021/01/06 05:54:39;;;;;;;;;;;0.60;99.90;;;;;;5053932;28;20046;-75
2021/01/06 05:57:43;;;;;;;;;;;0.60;99.90;;;;;;5054710;28;20365;-76
2021/01/06 06:00:12;;;;;;;;;;;0.60;99.90;;;;;;5012761;28;19913;-76
2021/01/06 06:02:49;;;;;;;;;;;0.60;99.90;;;;;;5013109;28;20035;-76
2021/01/06 06:05:33;;;;;;;;;;;0.50;99.90;;;;;;5036442;28;19909;-76
2021/01/06 06:08:08;;;;;;;;;;;0.40;99.90;;;;;;5053394;28;19909;-76
2021/01/06 06:10:52;;;;;;;;;;;0.40;99.90;;;;;;5053467;28;19909;-76
2021/01/06 06:13:37;;;;;;;;;;;0.40;99.90;;;;;;5053553;28;19954;-76
2021/01/06 06:16:28;;;;;;;;;;;0.40;99.90;;;;;;5054754;28;19913;-76
2021/01/06 06:18:58;;;;;;;;;;;0.30;99.90;;;;;;5037860;28;20289;-76
2021/01/06 06:21:43;;;;;;;;;;;0.40;99.90;;;;;;5053716;28;20278;-76
2021/01/06 06:24:11;;;;;;;;;;;0.30;99.90;;;;;;5053266;28;19909;-76
2021/01/06 06:26:40;;;;;;;;;;;0.30;99.90;;;;;;5052871;28;19909;-76
2021/01/06 06:29:21;;;;;;;;;;;0.30;99.90;;;;;;5054911;28;19939;-76
2021/01/06 06:31:49;;;;;;;;;;;0.30;99.90;;;;;;5054417;28;20381;-76
2021/01/06 06:34:14;;;;;;;;;;;0.40;99.90;;;;;;5054542;28;19918;-76
2021/01/06 06:36:43;;;;;;;;;;;0.40;99.90;;;;;;5052850;28;19909;-76
2021/01/06 06:39:14;;;;;;;;;;;0.30;99.90;;;;;;5054407;28;20331;-76
2021/01/06 06:41:40;;;;;;;;;;;0.30;99.90;;;;;;5054364;28;19935;-76
2021/01/06 06:44:17;;;;;;;;;;;0.30;99.90;;;;;;5054217;28;19913;-76
2021/01/06 06:46:42;;;;;;;;;;;0.30;99.90;;;;;;5053969;28;20369;-76
2021/01/06 06:49:17;;;;;;;;;;;0.30;99.90;;;;;;5054178;28;19916;-76
2021/01/06 06:51:47;;;;;;;;;;;0.30;99.90;;;;;;5054232;28;20258;-76
2021/01/06 06:54:19;;;;;;;;;;;0.30;99.90;;;;;;5054032;28;19917;-75
2021/01/06 06:56:44;;;;;;;;;;;0.30;99.90;;;;;;5053709;28;20344;-75
2021/01/06 06:59:12;;;;;;;;;;;0.30;99.90;;;;;;5053832;28;19959;-75
2021/01/06 07:01:40;;;;;;;;;;;0.30;99.90;;;;;;5054024;28;19908;-76
2021/01/06 07:04:12;;;;;;;;;;;0.30;99.90;;;;;;5052688;28;19919;-76
2021/01/06 07:06:38;;;;;;;;;;;0.30;99.90;;;;;;5053610;28;19962;-76
2021/01/06 07:09:05;;;;;;;;;;;0.30;99.90;;;;;;5052356;28;19917;-76
2021/01/06 07:11:32;;;;;;;;;;;0.20;99.90;;;;;;5052418;28;19909;-76
2021/01/06 07:14:03;;;;;;;;;;;0.20;99.90;;;;;;5053775;28;19909;-76
2021/01/06 07:16:34;;;;;;;;;;;0.20;99.90;;;;;;5052087;28;20004;-76
2021/01/06 07:19:32;;;;;;;;;;;0.20;99.90;;;;;;5053546;28;19958;-76
2021/01/06 07:22:03;;;;;;;;;;;0.10;99.90;;;;;;5030550;28;20050;-76
2021/01/06 07:24:29;;;;;;;;;;;0.20;99.90;;;;;;5053478;28;20278;-76
2021/01/06 07:27:00;;;;;;;;;;;0.20;99.90;;;;;;5053201;28;19931;-76
2021/01/06 07:29:32;;;;;;;;;;;0.20;99.90;;;;;;5053406;28;19919;-76
2021/01/06 07:32:02;;;;;;;;;;;0.20;99.90;;;;;;5053273;28;19924;-76
2021/01/06 07:34:48;;;;;;;;;;;0.20;99.90;;;;;;5053262;28;19943;-76
2021/01/06 07:37:25;;;;;;;;;;;0.20;99.90;;;;;;5051201;28;19908;-76
2021/01/06 07:39:58;;;;;;;;;;;0.20;99.90;;;;;;5053146;28;19988;-76
2021/01/06 07:42:30;;;;;;;;;;;0.20;99.90;;;;;;5051821;28;20418;-76
2021/01/06 07:45:07;;;;;;;;;;;0.20;99.90;;;;;;5053157;28;20007;-76
2021/01/06 07:47:35;;;;;;;;;;;0.20;99.90;;;;;;5052188;28;19909;-76
2021/01/06 07:50:03;;;;;;;;;;;0.20;99.90;;;;;;5053027;28;19909;-76
2021/01/06 07:52:38;;;;;;;;;;;0.20;99.90;;;;;;5052912;28;19924;-76
2021/01/06 07:55:22;;;;;;;;;;;0.20;99.90;;;;;;5052890;28;19920;-76
2021/01/06 07:57:47;;;;;;;;;;;0.10;99.90;;;;;;5051181;28;19909;-76
2021/01/06 08:00:15;;;;;;;;;;;0.10;99.90;;;;;;5052842;28;19913;-76
2021/01/06 08:02:56;;;;;;;;;;;0.00;99.90;;;;;;5052814;28;19909;-76
2021/01/06 08:05:22;;;;;;;;;;;0.10;99.90;;;;;;5051405;28;19919;-76
2021/01/06 08:07:48;;;;;;;;;;;0.10;99.90;;;;;;5052274;28;19995;-76
2021/01/06 08:10:27;;;;;;;;;;;0.20;99.90;;;;;;5052725;28;19908;-76
2021/01/06 08:13:06;;;;;;;;;;;0.20;99.90;;;;;;5052639;28;20308;-76
2021/01/06 08:15:32;;;;;;;;;;;0.30;99.90;;;;;;5052933;28;19912;-76
2021/01/06 08:18:03;;;;;;;;;;;0.30;99.90;;;;;;5052172;28;19962;-76
2021/01/06 08:20:33;;;;;;;;;;;0.40;99.90;;;;;;5052438;28;19913;-76
2021/01/06 08:23:10;;;;;;;;;;;0.40;99.90;;;;;;5052311;28;19952;-76
2021/01/06 08:25:36;;;;;;;;;;;0.50;99.90;;;;;;5050925;28;20444;-76
2021/01/06 08:28:18;;;;;;;;;;;0.40;99.90;;;;;;5050796;28;19909;-76
2021/01/06 08:30:44;;;;;;;;;;;0.50;99.90;;;;;;5050923;28;19917;-76
2021/01/06 08:33:11;;;;;;;;;;;0.50;99.90;;;;;;5052331;28;20012;-76
2021/01/06 08:35:38;;;;;;;;;;;0.50;99.90;;;;;;5050848;28;20011;-75
2021/01/06 08:38:06;;;;;;;;;;;0.50;99.90;;;;;;5052049;28;19916;-76
2021/01/06 08:40:38;;;;;;;;;;;0.50;99.90;;;;;;5051960;28;20289;-76
2021/01/06 08:43:09;;;;;;;;;;;0.50;99.90;;;;;;5052124;28;20365;-76
2021/01/06 08:45:37;;;;;;;;;;;0.50;99.90;;;;;;5051918;28;19999;-76
2021/01/06 08:48:21;;;;;;;;;;;0.50;99.90;;;;;;5050585;28;19985;-76
2021/01/06 08:50:46;;;;;;;;;;;0.50;99.90;;;;;;5052079;28;19991;-76
2021/01/06 08:53:13;;;;;;;;;;;0.50;99.90;;;;;;5051877;28;19943;-76
2021/01/06 08:55:40;;;;;;;;;;;0.60;99.90;;;;;;5051909;28;20251;-76
2021/01/06 08:58:07;;;;;;;;;;;0.60;99.90;;;;;;5050569;28;19909;-76
2021/01/06 09:00:42;;;;;;;;;;;0.70;99.90;;;;;;5049677;28;19913;-76
2021/01/06 09:03:11;;;;;;;;;;;0.70;99.90;;;;;;5050637;28;19909;-76
2021/01/06 09:05:42;;;;;;;;;;;0.80;99.90;;;;;;5050185;28;19916;-76
2021/01/06 09:08:10;;;;;;;;;;;0.80;99.90;;;;;;5050455;28;20357;-76
2021/01/06 09:10:39;;;;;;;;;;;0.80;99.90;;;;;;5050585;28;19909;-76
2021/01/06 09:13:09;;;;;;;;;;;0.80;99.90;;;;;;5051716;28;19916;-76
2021/01/06 09:15:41;;;;;;;;;;;0.80;99.90;;;;;;5051577;28;19909;-76
2021/01/06 09:18:26;;;;;;;;;;;0.80;99.90;;;;;;5051549;28;19963;-75
2021/01/06 09:21:10;;;;;;;;;;;0.80;99.90;;;;;;5044085;28;20377;-75
2021/01/06 09:23:37;;;;;;;;;;;0.80;99.90;;;;;;5051711;28;19919;-75
2021/01/06 09:26:02;;;;;;;;;;;0.80;99.90;;;;;;5051324;28;19909;-75
2021/01/06 09:28:30;;;;;;;;;;;0.80;99.90;;;;;;5051378;28;19950;-75
2021/01/06 09:30:56;;;;;;;;;;;0.80;99.90;;;;;;5051536;28;19920;-76
2021/01/06 09:33:23;;;;;;;;;;;0.90;99.90;;;;;;5050332;28;19915;-77
2021/01/06 09:35:49;;;;;;;;;;;0.90;99.90;;;;;;5051121;28;19963;-74
2021/01/06 09:38:22;;;;;;;;;;;0.80;99.90;;;;;;5050082;28;20361;-75
2021/01/06 09:40:48;;;;;;;;;;;0.70;99.90;;;;;;5051536;28;19909;-75
2021/01/06 09:43:21;;;;;;;;;;;0.70;99.90;;;;;;5067210;28;20399;-77
2021/01/06 09:45:46;;;;;;;;;;;0.70;99.90;;;;;;5089604;28;20011;-75
2021/01/06 09:48:13;;;;;;;;;;;0.80;99.90;;;;;;5091306;28;19951;-76
2021/01/06 09:50:44;;;;;;;;;;;0.80;99.90;;;;;;5091019;28;19955;-76
2021/01/06 09:53:10;;;;;;;;;;;0.90;99.90;;;;;;5091336;28;19999;-75
2021/01/06 09:55:40;;;;;;;;;;;0.90;99.90;;;;;;5090740;28;20053;-77
2021/01/06 09:58:19;;;;;;;;;;;0.90;99.90;;;;;;5091156;28;19993;-75
2021/01/06 10:00:58;;;;;;;;;;;0.90;99.90;;;;;;5091120;28;20407;-75
2021/01/06 10:03:28;;;;;;;;;;;1.00;99.90;;;;;;5091246;28;19912;-75
2021/01/06 10:06:09;;;;;;;;;;;1.00;99.90;;;;;;5090625;28;20002;-75
2021/01/06 10:08:37;;;;;;;;;;;1.00;99.90;;;;;;5089486;28;20010;-76
2021/01/06 10:11:27;;;;;;;;;;;1.00;99.90;;;;;;5092191;28;19974;-75
2021/01/06 10:14:03;;;;;;;;;;;1.10;99.90;;;;;;5066186;28;20333;-76
2021/01/06 10:16:32;;;;;;;;;;;1.10;99.90;;;;;;5092943;28;19908;-78
2021/01/06 10:19:28;;;;;;;;;;;1.20;99.90;;;;;;5094457;28;19912;-75
2021/01/06 10:22:11;;;;;;;;;;;1.30;99.90;;;;;;5081097;28;19953;-75
2021/01/06 10:25:06;;;;;;;;;;;1.40;99.90;;;;;;5094523;28;19942;-76
2021/01/06 10:27:31;;;;;;;;;;;1.50;99.90;;;;;;5080458;28;19915;-75
2021/01/06 10:29:57;;;;;;;;;;;1.40;99.90;;;;;;5094478;28;19912;-76
2021/01/06 10:32:32;;;;;;;;;;;1.40;99.90;;;;;;5093279;28;19961;-76
2021/01/06 10:35:27;;;;;;;;;;;1.40;99.90;;;;;;5094393;28;19935;-74
2021/01/06 10:37:53;;;;;;;;;;;1.40;99.90;;;;;;5080577;28;20002;-75
2021/01/06 10:40:25;;;;;;;;;;;1.40;99.90;;;;;;5094215;28;19919;-75
2021/01/06 10:42:51;;;;;;;;;;;1.40;99.90;;;;;;5094343;28;19953;-75
2021/01/06 10:45:19;;;;;;;;;;;1.40;99.90;;;;;;5094329;28;19912;-75
2021/01/06 10:47:46;;;;;;;;;;;1.40;99.90;;;;;;5093719;28;19909;-75
2021/01/06 10:50:24;;;;;;;;;;;1.40;99.90;;;;;;5094179;28;19912;-74
2021/01/06 10:53:15;;;;;;;;;;;1.40;99.90;;;;;;5092831;28;20414;-75
2021/01/06 10:55:59;;;;;;;;;;;1.30;99.90;;;;;;5092367;28;19908;-74
2021/01/06 10:58:27;;;;;;;;;;;1.30;99.90;;;;;;5093897;28;20458;-75
2021/01/06 11:01:17;;;;;;;;;;;1.30;99.90;;;;;;5094059;28;19915;-75
2021/01/06 11:03:59;;;;;;;;;;;1.30;99.90;;;;;;5092630;28;19951;-74
2021/01/06 11:06:30;;;;;;;;;;;1.20;99.90;;;;;;5093853;28;20258;-75
2021/01/06 11:09:02;;;;;;;;;;;1.20;99.90;;;;;;5093643;28;19912;-75
2021/01/06 11:11:34;;;;;;;;;;;1.20;99.90;;;;;;5092735;28;20265;-78
2021/01/06 11:13:59;;;;;;;;;;;1.30;99.90;;;;;;5093770;28;19908;-75
2021/01/06 11:16:34;;;;;;;;;;;1.30;99.90;;;;;;5093320;28;19913;-74
2021/01/06 11:19:00;;;;;;;;;;;1.30;99.90;;;;;;5093257;28;19912;-75
2021/01/06 11:21:41;;;;;;;;;;;1.30;99.90;;;;;;5092139;28;19954;-75
2021/01/06 11:24:25;;;;;;;;;;;1.40;99.90;;;;;;5092610;28;19999;-75
2021/01/06 11:26:53;;;;;;;;;;;1.40;99.90;;;;;;5091677;28;19908;-74
2021/01/06 11:29:37;;;;;;;;;;;1.50;99.90;;;;;;5091766;28;19908;-77
2021/01/06 11:32:23;;;;;;;;;;;1.50;99.90;;;;;;5093242;28;20377;-75
2021/01/06 11:35:05;;;;;;;;;;;1.50;99.90;;;;;;5093129;28;19908;-75
2021/01/06 11:37:33;;;;;;;;;;;1.50;99.90;;;;;;5091509;28;19908;-75
2021/01/06 11:39:59;;;;;;;;;;;1.60;99.90;;;;;;5092712;28;20364;-74
2021/01/06 11:42:44;;;;;;;;;;;1.60;99.90;;;;;;5071843;28;19908;-74
2021/01/06 11:45:10;;;;;;;;;;;1.60;99.90;;;;;;5072961;28;19935;-75
2021/01/06 11:47:44;;;;;;;;;;;1.60;99.90;;;;;;5072333;28;19935;-75
2021/01/06 11:50:28;;;;;;;;;;;1.60;99.90;;;;;;5072707;28;19944;-75
2021/01/06 11:53:12;;;;;;;;;;;1.70;99.90;;;;;;5072610;28;19920;-75
2021/01/06 11:55:43;;;;;;;;;;;1.70;99.90;;;;;;5072348;28;19981;-75
2021/01/06 11:58:08;;;;;;;;;;;1.70;99.90;;;;;;5072471;28;20353;-73
2021/01/06 12:00:43;;;;;;;;;;;1.70;99.90;;;;;;5071046;28;19926;-74
2021/01/06 12:03:11;;;;;;;;;;;1.70;99.90;;;;;;5072282;28;19974;-74
2021/01/06 12:05:37;;;;;;;;;;;1.60;99.90;;;;;;5070676;28;19916;-76
2021/01/06 12:08:02;;;;;;;;;;;1.60;99.90;;;;;;5070301;28;19957;-74
2021/01/06 12:10:36;;;;;;;;;;;1.50;99.90;;;;;;5072332;28;19991;-75
2021/01/06 12:13:14;;;;;;;;;;;1.60;99.90;;;;;;5072092;28;19922;-75
2021/01/06 12:15:45;;;;;;;;;;;1.70;99.90;;;;;;5071798;28;20015;-76
2021/01/06 12:18:22;;;;;;;;;;;1.70;99.90;;;;;;5070366;28;20365;-74
2021/01/06 12:20:49;;;;;;;;;;;1.80;99.90;;;;;;5071254;28;20407;-74
2021/01/06 12:23:14;;;;;;;;;;;1.80;99.90;;;;;;5072503;28;20385;-74
2021/01/06 12:25:43;;;;;;;;;;;1.90;99.90;;;;;;5071968;28;19958;-74
2021/01/06 12:28:34;;;;;;;;;;;1.90;99.90;;;;;;5072308;28;20369;-74
2021/01/06 12:31:09;;;;;;;;;;;2.00;99.90;;;;;;5047810;28;19922;-74
2021/01/06 12:33:37;;;;;;;;;;;1.90;99.90;;;;;;5072188;28;20369;-74
2021/01/06 12:36:29;;;;;;;;;;;1.90;99.90;;;;;;5071733;28;19915;-74
2021/01/06 12:39:14;;;;;;;;;;;1.80;99.90;;;;;;5070067;28;19951;-74
2021/01/06 12:41:59;;;;;;;;;;;1.80;99.90;;;;;;5054535;28;19951;-74
2021/01/06 12:44:26;;;;;;;;;;;1.70;99.90;;;;;;5071930;28;20358;-74
2021/01/06 12:46:54;;;;;;;;;;;1.70;99.90;;;;;;5071685;28;20365;-74
2021/01/06 12:49:21;;;;;;;;;;;1.70;99.90;;;;;;5072041;28;19962;-74
2021/01/06 12:52:05;;;;;;;;;;;1.70;99.90;;;;;;5071980;28;19916;-74
2021/01/06 12:54:47;;;;;;;;;;;1.70;99.90;;;;;;5071986;28;19995;-74
2021/01/06 12:57:18;;;;;;;;;;;1.70;99.90;;;;;;5071706;28;19913;-74
2021/01/06 12:59:55;;;;;;;;;;;1.70;99.90;;;;;;5070609;28;19917;-75
2021/01/06 13:02:26;;;;;;;;;;;1.70;99.90;;;;;;5071882;28;19962;-75
2021/01/06 13:04:53;;;;;;;;;;;1.80;99.90;;;;;;5072339;28;20353;-74
2021/01/06 13:07:30;;;;;;;;;;;1.80;99.90;;;;;;5071482;28;19908;-74
2021/01/06 13:10:03;;;;;;;;;;;1.80;99.90;;;;;;5070465;28;19915;-74
2021/01/06 13:12:45;;;;;;;;;;;1.90;99.90;;;;;;5072102;28;19908;-73
2021/01/06 13:15:23;;;;;;;;;;;1.90;99.90;;;;;;5070580;28;19913;-75
2021/01/06 13:17:57;;;;;;;;;;;2.00;99.90;;;;;;5071311;28;19915;-74
2021/01/06 13:20:37;;;;;;;;;;;2.00;99.90;;;;;;5071771;28;19919;-75
2021/01/06 13:23:12;;;;;;;;;;;2.00;99.90;;;;;;5071767;28;19909;-74
2021/01/06 13:25:39;;;;;;;;;;;2.00;99.90;;;;;;5070203;28;19919;-75
2021/01/06 13:28:11;;;;;;;;;;;2.10;99.90;;;;;;5071482;28;20344;-74
2021/01/06 13:30:42;;;;;;;;;;;2.10;99.90;;;;;;5071654;28;19927;-74
2021/01/06 13:33:13;;;;;;;;;;;2.10;99.90;;;;;;5071632;28;19995;-74
2021/01/06 13:35:45;;;;;;;;;;;2.10;99.90;;;;;;5070419;28;20561;-74
2021/01/06 13:38:14;;;;;;;;;;;2.10;99.90;;;;;;5071481;28;19909;-75
2021/01/06 13:40:42;;;;;;;;;;;2.20;99.90;;;;;;5071365;28;20384;-74
2021/01/06 13:43:18;;;;;;;;;;;2.20;99.90;;;;;;5071587;28;19947;-74
2021/01/06 13:46:02;;;;;;;;;;;2.30;99.90;;;;;;5071762;28;19995;-75
2021/01/06 13:48:27;;;;;;;;;;;2.30;99.90;;;;;;5075291;28;19909;-74
2021/01/06 13:51:07;;;;;;;;;;;2.30;99.90;;;;;;5075407;28;20361;-74
2021/01/06 13:53:41;;;;;;;;;;;2.20;99.90;;;;;;5075430;28;19951;-74
2021/01/06 13:56:20;;;;;;;;;;;2.20;99.90;;;;;;5074943;28;20289;-74
2021/01/06 13:59:09;;;;;;;;;;;2.20;99.90;;;;;;5075283;28;19917;-74
2021/01/06 14:01:50;;;;;;;;;;;2.10;99.90;;;;;;5055364;28;19932;-74
2021/01/06 14:04:17;;;;;;;;;;;2.00;99.90;;;;;;5075189;28;19944;-74
2021/01/06 14:07:01;;;;;;;;;;;2.00;99.90;;;;;;5074643;28;19909;-74
2021/01/06 14:09:32;;;;;;;;;;;1.90;99.90;;;;;;5075001;28;20384;-74
2021/01/06 14:12:03;;;;;;;;;;;1.90;99.90;;;;;;5074871;28;19944;-73
2021/01/06 14:14:33;;;;;;;;;;;1.80;99.90;;;;;;5075133;28;19944;-74
2021/01/06 14:17:03;;;;;;;;;;;1.80;99.90;;;;;;5074870;28;19909;-74
2021/01/06 14:19:47;;;;;;;;;;;1.80;99.90;;;;;;5074693;28;19916;-74
2021/01/06 14:22:31;;;;;;;;;;;1.70;99.90;;;;;;5073377;28;19909;-74
2021/01/06 14:24:58;;;;;;;;;;;1.70;99.90;;;;;;5074624;28;19909;-74
2021/01/06 14:27:39;;;;;;;;;;;1.60;99.90;;;;;;5074457;28;19915;-73
2021/01/06 14:30:27;;;;;;;;;;;1.60;99.90;;;;;;5074507;28;19912;-73
2021/01/06 14:33:04;;;;;;;;;;;1.60;99.90;;;;;;5074532;28;19963;-75
2021/01/06 14:35:39;;;;;;;;;;;1.60;99.90;;;;;;5074559;28;20365;-73
2021/01/06 14:38:08;;;;;;;;;;;1.60;99.90;;;;;;5074784;28;19908;-73
2021/01/06 14:40:41;;;;;;;;;;;1.60;99.90;;;;;;5074429;28;19959;-73
2021/01/06 14:43:15;;;;;;;;;;;1.60;99.90;;;;;;5074320;28;20177;-73
2021/01/06 14:45:53;;;;;;;;;;;1.60;99.90;;;;;;5072717;28;19948;-74
2021/01/06 14:48:28;;;;;;;;;;;1.50;99.90;;;;;;5072963;28;19909;-75
2021/01/06 14:50:59;;;;;;;;;;;1.40;99.90;;;;;;5074374;28;19999;-73
2021/01/06 14:53:31;;;;;;;;;;;1.40;99.90;;;;;;5074213;28;19915;-74
2021/01/06 14:55:57;;;;;;;;;;;1.40;99.90;;;;;;5072524;28;19916;-74